Time;durP1;ratioP1;P1;durP2;ratioP2;P2;SDS_P1;SDS_P2;PMS_P1;PMS_P2;Temp;Humidity;BMP_temperature;BMP_pressure;BME280_temperature;BME280_humidity;BME280_pressure;Samples;Min_cycle;Max_cycle;Signal;HPM_P1;HPM_P2
2023/06/12 00:01:07;;;;;;;;;;;20.80;63.00;;;;;;5045803;28;20339;-40
2023/06/12 00:03:34;;;;;;;;;;;20.80;63.10;;;;;;5034833;28;19997;-41
2023/06/12 00:06:02;;;;;;;;;;;20.80;63.40;;;;;;5034650;28;19989;-41
2023/06/12 00:08:30;;;;;;;;;;;20.80;63.50;;;;;;5034309;28;19985;-42
2023/06/12 00:10:56;;;;;;;;;;;20.70;63.60;;;;;;5037894;28;19925;-42
2023/06/12 00:13:23;;;;;;;;;;;20.70;63.80;;;;;;5041252;28;20423;-40
2023/06/12 00:15:50;;;;;;;;;;;20.60;65.50;;;;;;5048691;28;19936;-41
2023/06/12 00:18:17;;;;;;;;;;;20.60;64.10;;;;;;5034375;28;20319;-38
2023/06/12 00:20:44;;;;;;;;;;;20.50;65.10;;;;;;5050758;28;20007;-41
2023/06/12 00:23:12;;;;;;;;;;;20.50;64.90;;;;;;5051951;28;19941;-40
2023/06/12 00:25:39;;;;;;;;;;;20.50;64.50;;;;;;5042859;28;19959;-42
2023/06/12 00:28:05;;;;;;;;;;;20.40;66.20;;;;;;5037256;28;19925;-42
2023/06/12 00:30:32;;;;;;;;;;;20.30;65.50;;;;;;5035449;28;19967;-39
2023/06/12 00:32:59;;;;;;;;;;;20.30;65.10;;;;;;5033951;28;20427;-42
2023/06/12 00:35:25;;;;;;;;;;;20.20;64.80;;;;;;5048995;28;20007;-41
2023/06/12 00:37:52;;;;;;;;;;;20.20;65.70;;;;;;5039855;28;19990;-42
2023/06/12 00:40:20;;;;;;;;;;;20.20;65.90;;;;;;5037940;28;19924;-41
2023/06/12 00:42:47;;;;;;;;;;;20.10;65.20;;;;;;5051807;28;19979;-40
2023/06/12 00:45:14;;;;;;;;;;;20.10;66.00;;;;;;5051250;28;19979;-41
2023/06/12 00:47:41;;;;;;;;;;;20.10;67.20;;;;;;5051591;28;19943;-41
2023/06/12 00:50:09;;;;;;;;;;;20.00;66.00;;;;;;5052317;28;20009;-41
2023/06/12 00:52:36;;;;;;;;;;;20.00;65.70;;;;;;5039820;28;20485;-41
2023/06/12 00:55:04;;;;;;;;;;;19.90;66.60;;;;;;5049982;28;19947;-42
2023/06/12 00:57:32;;;;;;;;;;;19.90;65.90;;;;;;5059715;28;20042;-41
2023/06/12 00:59:59;;;;;;;;;;;19.90;66.90;;;;;;5049202;28;20090;-40
2023/06/12 01:02:26;;;;;;;;;;;19.80;67.20;;;;;;5064637;28;19941;-41
2023/06/12 01:04:53;;;;;;;;;;;19.80;66.20;;;;;;5042611;28;19933;-41
2023/06/12 01:07:21;;;;;;;;;;;19.70;66.50;;;;;;5048606;28;20039;-41
2023/06/12 01:09:49;;;;;;;;;;;19.70;67.00;;;;;;5035815;28;20015;-41
2023/06/12 01:12:16;;;;;;;;;;;19.70;66.50;;;;;;5065944;28;19976;-41
2023/06/12 01:14:46;;;;;;;;;;;19.60;67.10;;;;;;5066629;28;20367;-40
2023/06/12 01:17:12;;;;;;;;;;;19.60;67.20;;;;;;5051302;28;19961;-39
2023/06/12 01:19:41;;;;;;;;;;;19.50;67.20;;;;;;5046312;28;20438;-41
2023/06/12 01:22:10;;;;;;;;;;;19.50;67.10;;;;;;5039473;28;19962;-40
2023/06/12 01:24:42;;;;;;;;;;;19.40;68.10;;;;;;5061422;28;20419;-40
2023/06/12 01:27:23;;;;;;;;;;;19.40;68.20;;;;;;5060986;28;20406;-41
2023/06/12 01:29:53;;;;;;;;;;;19.40;67.90;;;;;;5049460;28;20020;-41
2023/06/12 01:32:24;;;;;;;;;;;19.30;68.40;;;;;;5050758;28;20402;-41
2023/06/12 01:34:56;;;;;;;;;;;19.20;67.50;;;;;;5052413;28;20334;-41
2023/06/12 01:37:25;;;;;;;;;;;19.20;67.60;;;;;;5033564;28;19967;-40
2023/06/12 01:39:54;;;;;;;;;;;19.20;68.20;;;;;;5046373;28;19984;-41
2023/06/12 01:42:21;;;;;;;;;;;19.20;69.10;;;;;;5048490;28;20242;-41
2023/06/12 01:44:50;;;;;;;;;;;19.10;69.00;;;;;;5037239;28;19939;-41
2023/06/12 01:47:16;;;;;;;;;;;19.10;68.60;;;;;;5050554;28;19971;-41
2023/06/12 01:49:44;;;;;;;;;;;19.00;68.50;;;;;;5052141;28;20003;-41
2023/06/12 01:52:11;;;;;;;;;;;19.00;69.80;;;;;;5063865;28;20431;-40
2023/06/12 01:54:37;;;;;;;;;;;18.90;68.60;;;;;;5065895;28;19995;-41
2023/06/12 01:57:05;;;;;;;;;;;18.90;69.10;;;;;;5050449;28;19955;-41
2023/06/12 01:59:34;;;;;;;;;;;18.90;69.60;;;;;;5050747;28;19925;-41
2023/06/12 02:02:00;;;;;;;;;;;18.80;69.50;;;;;;5038818;28;20007;-40
2023/06/12 02:04:28;;;;;;;;;;;18.80;69.10;;;;;;5050463;28;19993;-41
2023/06/12 02:06:56;;;;;;;;;;;18.80;69.60;;;;;;5049561;28;19975;-41
2023/06/12 02:09:22;;;;;;;;;;;18.80;69.00;;;;;;5048515;28;19982;-41
2023/06/12 02:11:49;;;;;;;;;;;18.70;69.20;;;;;;5034403;28;20269;-41
2023/06/12 02:14:16;;;;;;;;;;;18.70;69.90;;;;;;5050811;28;20033;-41
2023/06/12 02:16:45;;;;;;;;;;;18.70;68.90;;;;;;5045496;28;19939;-41
2023/06/12 02:19:12;;;;;;;;;;;18.70;68.60;;;;;;5044777;28;20030;-40
2023/06/12 02:21:39;;;;;;;;;;;18.70;68.70;;;;;;5050066;28;19939;-41
2023/06/12 02:24:07;;;;;;;;;;;18.60;69.00;;;;;;5048153;28;19936;-41
2023/06/12 02:26:35;;;;;;;;;;;18.60;68.70;;;;;;5050144;28;19929;-40
2023/06/12 02:29:08;;;;;;;;;;;18.60;68.60;;;;;;5033894;28;19963;-41
2023/06/12 02:31:35;;;;;;;;;;;18.60;68.70;;;;;;5040990;28;20405;-40
2023/06/12 02:34:02;;;;;;;;;;;18.50;69.10;;;;;;5034902;28;19954;-41
2023/06/12 02:36:28;;;;;;;;;;;18.50;69.50;;;;;;5036995;28;19961;-40
2023/06/12 02:38:55;;;;;;;;;;;18.50;69.20;;;;;;5047704;28;19945;-41
2023/06/12 02:41:23;;;;;;;;;;;18.40;69.00;;;;;;5051987;28;19928;-41
2023/06/12 02:43:50;;;;;;;;;;;18.40;69.10;;;;;;5048922;28;20422;-42
2023/06/12 02:46:16;;;;;;;;;;;18.30;68.90;;;;;;5041290;28;19940;-41
2023/06/12 02:48:43;;;;;;;;;;;18.40;69.10;;;;;;5050899;28;19990;-41
2023/06/12 02:51:10;;;;;;;;;;;18.30;68.90;;;;;;5044077;28;19943;-40
2023/06/12 02:53:36;;;;;;;;;;;18.30;70.60;;;;;;5050206;28;20394;-39
2023/06/12 02:56:03;;;;;;;;;;;18.20;69.30;;;;;;5050071;28;20055;-41
2023/06/12 02:58:32;;;;;;;;;;;18.20;69.20;;;;;;5049329;28;19943;-41
2023/06/12 03:00:58;;;;;;;;;;;18.10;69.70;;;;;;5041589;28;20335;-38
2023/06/12 03:03:28;;;;;;;;;;;18.10;69.40;;;;;;5042623;28;19972;-39
2023/06/12 03:05:55;;;;;;;;;;;18.10;69.40;;;;;;5040588;28;19971;-41
2023/06/12 03:08:22;;;;;;;;;;;18.10;69.80;;;;;;5041013;28;19983;-41
2023/06/12 03:10:48;;;;;;;;;;;18.00;69.80;;;;;;5046480;28;20005;-39
2023/06/12 03:13:15;;;;;;;;;;;18.00;69.60;;;;;;5050744;28;19959;-41
2023/06/12 03:15:44;;;;;;;;;;;18.00;69.90;;;;;;5051598;28;19929;-42
2023/06/12 03:18:10;;;;;;;;;;;17.90;69.90;;;;;;5021007;28;19944;-39
2023/06/12 03:20:37;;;;;;;;;;;17.90;69.70;;;;;;5040419;28;19991;-41
2023/06/12 03:23:04;;;;;;;;;;;17.90;70.00;;;;;;5049598;28;19987;-40
2023/06/12 03:25:30;;;;;;;;;;;17.80;70.10;;;;;;5038242;28;20016;-40
2023/06/12 03:27:57;;;;;;;;;;;17.80;70.20;;;;;;5032093;28;19941;-43
2023/06/12 03:30:24;;;;;;;;;;;17.80;70.20;;;;;;5052934;28;20005;-41
2023/06/12 03:32:56;;;;;;;;;;;17.80;70.10;;;;;;5053599;28;20014;-41
2023/06/12 03:35:23;;;;;;;;;;;17.70;70.20;;;;;;5049629;28;19966;-36
2023/06/12 03:37:50;;;;;;;;;;;17.70;70.30;;;;;;5046880;28;20001;-41
2023/06/12 03:40:18;;;;;;;;;;;17.70;70.60;;;;;;5045122;28;19979;-41
2023/06/12 03:42:45;;;;;;;;;;;17.60;70.40;;;;;;5038012;28;20452;-41
2023/06/12 03:45:12;;;;;;;;;;;17.60;70.50;;;;;;5039868;28;19925;-39
2023/06/12 03:47:38;;;;;;;;;;;17.60;70.70;;;;;;5052674;28;19962;-41
2023/06/12 03:50:10;;;;;;;;;;;17.60;70.60;;;;;;5048534;28;20448;-41
2023/06/12 03:52:36;;;;;;;;;;;17.60;71.00;;;;;;5026046;28;20013;-41
2023/06/12 03:55:03;;;;;;;;;;;17.50;71.10;;;;;;5042402;28;19959;-41
2023/06/12 03:57:30;;;;;;;;;;;17.50;71.10;;;;;;5046133;28;19987;-39
2023/06/12 03:59:56;;;;;;;;;;;17.50;71.50;;;;;;5038034;28;19971;-37
2023/06/12 04:02:23;;;;;;;;;;;17.50;72.00;;;;;;5064069;28;19975;-41
2023/06/12 04:04:51;;;;;;;;;;;17.40;71.80;;;;;;5058318;28;19972;-41
2023/06/12 04:07:19;;;;;;;;;;;17.40;72.80;;;;;;5053419;28;19931;-41
2023/06/12 04:09:45;;;;;;;;;;;17.40;72.50;;;;;;5044013;28;20018;-39
2023/06/12 04:12:12;;;;;;;;;;;17.40;72.30;;;;;;5043636;28;19924;-42
2023/06/12 04:14:39;;;;;;;;;;;17.40;72.50;;;;;;5041948;28;19987;-41
2023/06/12 04:17:05;;;;;;;;;;;17.30;72.60;;;;;;5042562;28;20017;-41
2023/06/12 04:19:32;;;;;;;;;;;17.30;72.80;;;;;;5054592;28;19976;-39
2023/06/12 04:22:00;;;;;;;;;;;17.30;72.90;;;;;;5046815;28;19963;-39
2023/06/12 04:24:30;;;;;;;;;;;17.30;74.90;;;;;;5067141;28;20053;-40
2023/06/12 04:27:00;;;;;;;;;;;17.30;74.30;;;;;;5050758;28;20007;-41
2023/06/12 04:29:27;;;;;;;;;;;17.20;73.50;;;;;;5042384;28;19925;-40
2023/06/12 04:31:54;;;;;;;;;;;17.20;73.30;;;;;;5040706;28;20074;-41
2023/06/12 04:34:21;;;;;;;;;;;17.20;73.10;;;;;;5047372;28;19931;-41
2023/06/12 04:36:52;;;;;;;;;;;17.30;74.50;;;;;;5047374;28;20342;-41
2023/06/12 04:39:19;;;;;;;;;;;17.30;74.90;;;;;;5036611;28;19939;-41
2023/06/12 04:41:47;;;;;;;;;;;17.20;75.50;;;;;;5059338;28;20020;-40
2023/06/12 04:44:14;;;;;;;;;;;17.30;74.70;;;;;;5065207;28;19929;-41
2023/06/12 04:46:40;;;;;;;;;;;17.30;74.40;;;;;;5049729;28;19931;-41
2023/06/12 04:49:08;;;;;;;;;;;17.30;74.60;;;;;;5063713;28;19955;-41
2023/06/12 04:51:35;;;;;;;;;;;17.30;74.00;;;;;;5050819;28;20016;-41
2023/06/12 04:54:02;;;;;;;;;;;17.40;74.50;;;;;;5066769;28;20023;-40
2023/06/12 04:56:31;;;;;;;;;;;17.40;75.10;;;;;;5066932;28;19925;-41
2023/06/12 04:59:00;;;;;;;;;;;17.40;75.30;;;;;;5048775;28;19925;-40
2023/06/12 05:01:27;;;;;;;;;;;17.40;75.50;;;;;;5031978;28;19968;-41
2023/06/12 05:03:53;;;;;;;;;;;17.40;76.80;;;;;;5051455;28;20028;-41
2023/06/12 05:06:20;;;;;;;;;;;17.50;78.80;;;;;;5050305;28;19997;-43
2023/06/12 05:08:47;;;;;;;;;;;17.50;80.70;;;;;;5039635;28;20019;-41
2023/06/12 05:11:13;;;;;;;;;;;17.50;78.70;;;;;;5040797;28;20127;-41
2023/06/12 05:13:40;;;;;;;;;;;17.50;78.20;;;;;;5041602;28;20476;-41
2023/06/12 05:16:08;;;;;;;;;;;17.60;79.00;;;;;;5031058;28;19969;-40
2023/06/12 05:18:35;;;;;;;;;;;17.60;80.00;;;;;;5052214;28;20004;-40
2023/06/12 05:21:03;;;;;;;;;;;17.70;79.30;;;;;;5050455;28;19925;-41
2023/06/12 05:23:29;;;;;;;;;;;17.70;79.40;;;;;;5047048;28;20365;-41
2023/06/12 05:25:56;;;;;;;;;;;17.80;78.80;;;;;;5026063;28;20057;-37
2023/06/12 05:28:23;;;;;;;;;;;17.90;79.90;;;;;;5032504;28;20034;-39
2023/06/12 05:30:49;;;;;;;;;;;17.90;79.70;;;;;;5031618;28;19971;-41
2023/06/12 05:33:17;;;;;;;;;;;18.10;79.00;;;;;;5031959;28;19955;-41
2023/06/12 05:35:44;;;;;;;;;;;18.10;79.80;;;;;;5038485;28;19959;-42
2023/06/12 05:38:10;;;;;;;;;;;18.20;78.30;;;;;;5036297;28;19962;-37
2023/06/12 05:40:37;;;;;;;;;;;18.40;80.00;;;;;;5033499;28;20381;-40
2023/06/12 05:43:04;;;;;;;;;;;18.50;78.10;;;;;;5033129;28;19979;-40
2023/06/12 05:45:30;;;;;;;;;;;18.60;78.70;;;;;;5037639;28;20048;-41
2023/06/12 05:47:57;;;;;;;;;;;18.70;78.80;;;;;;5045660;28;20406;-41
2023/06/12 05:50:25;;;;;;;;;;;18.70;77.80;;;;;;5032738;28;20022;-41
2023/06/12 05:52:52;;;;;;;;;;;18.90;77.80;;;;;;5038519;28;19937;-41
2023/06/12 05:55:19;;;;;;;;;;;19.00;78.10;;;;;;5042967;28;19991;-42
2023/06/12 05:57:45;;;;;;;;;;;19.10;77.40;;;;;;5042843;28;19937;-41
2023/06/12 06:00:13;;;;;;;;;;;19.20;79.10;;;;;;5038275;28;20002;-40
2023/06/12 06:02:42;;;;;;;;;;;19.40;78.50;;;;;;5035351;28;19928;-41
2023/06/12 06:05:09;;;;;;;;;;;19.50;78.40;;;;;;5039510;28;19979;-41
2023/06/12 06:07:38;;;;;;;;;;;19.70;78.70;;;;;;5033427;28;20016;-41
2023/06/12 06:10:05;;;;;;;;;;;19.70;78.10;;;;;;5013928;28;19925;-42
2023/06/12 06:12:32;;;;;;;;;;;19.90;77.80;;;;;;5031971;28;20412;-40
2023/06/12 06:14:58;;;;;;;;;;;20.00;77.10;;;;;;5031622;28;20330;-39
2023/06/12 06:17:25;;;;;;;;;;;20.20;77.40;;;;;;5030786;28;20566;-41
2023/06/12 06:19:52;;;;;;;;;;;20.30;76.80;;;;;;5032296;28;20343;-41
2023/06/12 06:22:18;;;;;;;;;;;20.40;77.10;;;;;;5031197;28;20318;-41
2023/06/12 06:24:46;;;;;;;;;;;20.60;76.30;;;;;;5032226;28;20010;-40
2023/06/12 06:27:13;;;;;;;;;;;20.70;76.60;;;;;;5032048;28;19983;-40
2023/06/12 06:29:39;;;;;;;;;;;20.80;76.60;;;;;;5030972;28;19983;-42
2023/06/12 06:32:06;;;;;;;;;;;21.00;76.30;;;;;;5032155;28;20058;-41
2023/06/12 06:34:33;;;;;;;;;;;21.10;75.70;;;;;;5032078;28;19976;-41
2023/06/12 06:37:00;;;;;;;;;;;21.30;75.60;;;;;;5030996;28;19977;-42
2023/06/12 06:39:26;;;;;;;;;;;21.50;75.40;;;;;;5031041;28;19979;-41
2023/06/12 06:41:54;;;;;;;;;;;21.60;75.40;;;;;;5032041;28;19932;-41
2023/06/12 06:44:21;;;;;;;;;;;21.60;74.70;;;;;;5034437;28;19925;-42
2023/06/12 06:46:49;;;;;;;;;;;21.80;74.80;;;;;;5035023;28;19976;-42
2023/06/12 06:49:15;;;;;;;;;;;22.00;74.70;;;;;;5035776;28;19929;-42
2023/06/12 06:51:42;;;;;;;;;;;22.20;74.20;;;;;;5035731;28;19976;-43
2023/06/12 06:54:08;;;;;;;;;;;22.30;73.80;;;;;;5034459;28;19925;-42
2023/06/12 06:56:35;;;;;;;;;;;22.40;73.70;;;;;;5046284;28;19924;-41
2023/06/12 06:59:03;;;;;;;;;;;22.60;73.80;;;;;;5037734;28;19929;-42
2023/06/12 07:01:33;;;;;;;;;;;22.80;73.10;;;;;;5038000;28;19986;-42
2023/06/12 07:03:59;;;;;;;;;;;22.90;73.10;;;;;;5055421;28;19931;-41
2023/06/12 07:06:26;;;;;;;;;;;23.10;72.50;;;;;;5055291;28;20058;-42
2023/06/12 07:08:53;;;;;;;;;;;23.20;72.60;;;;;;5037298;28;20014;-43
2023/06/12 07:11:19;;;;;;;;;;;23.40;72.40;;;;;;5054177;28;20041;-42
2023/06/12 07:13:46;;;;;;;;;;;23.50;72.40;;;;;;5054029;28;19978;-42
2023/06/12 07:16:14;;;;;;;;;;;23.70;72.20;;;;;;5055140;28;19997;-40
2023/06/12 07:18:41;;;;;;;;;;;23.80;72.00;;;;;;5055187;28;20350;-43
2023/06/12 07:21:08;;;;;;;;;;;24.00;71.40;;;;;;5054104;28;19925;-43
2023/06/12 07:23:35;;;;;;;;;;;24.10;71.00;;;;;;5054870;28;19970;-40
2023/06/12 07:26:02;;;;;;;;;;;24.20;71.50;;;;;;5054935;28;20071;-42
2023/06/12 07:28:31;;;;;;;;;;;24.30;71.10;;;;;;5053740;28;20004;-42
2023/06/12 07:30:58;;;;;;;;;;;24.40;70.80;;;;;;5054971;28;19972;-42
2023/06/12 07:33:26;;;;;;;;;;;24.60;70.30;;;;;;5054661;28;20297;-42
2023/06/12 07:35:52;;;;;;;;;;;24.60;69.70;;;;;;5036780;28;19994;-42
2023/06/12 07:38:19;;;;;;;;;;;24.70;70.40;;;;;;5054520;28;19979;-42
2023/06/12 07:40:46;;;;;;;;;;;24.90;69.80;;;;;;5054651;28;20030;-41
2023/06/12 07:43:12;;;;;;;;;;;25.00;70.00;;;;;;5054235;28;19996;-40
2023/06/12 07:45:39;;;;;;;;;;;25.30;69.50;;;;;;5053687;28;19968;-42
2023/06/12 07:48:07;;;;;;;;;;;25.40;69.60;;;;;;5054388;28;19987;-41
2023/06/12 07:50:37;;;;;;;;;;;25.70;69.50;;;;;;5054384;28;19928;-42
2023/06/12 07:53:04;;;;;;;;;;;25.90;68.80;;;;;;5036342;28;19935;-42
2023/06/12 07:55:30;;;;;;;;;;;26.10;67.80;;;;;;5050711;28;20003;-43
2023/06/12 07:57:57;;;;;;;;;;;26.20;68.10;;;;;;5034457;28;20419;-43
2023/06/12 08:00:24;;;;;;;;;;;26.30;68.20;;;;;;5034313;28;19925;-42
2023/06/12 08:02:57;;;;;;;;;;;26.50;66.00;;;;;;5033185;28;19925;-42
2023/06/12 08:05:24;;;;;;;;;;;26.60;66.50;;;;;;5032884;28;19969;-42
2023/06/12 08:07:52;;;;;;;;;;;26.70;65.20;;;;;;5034214;28;19944;-42
2023/06/12 08:10:19;;;;;;;;;;;26.80;66.30;;;;;;5032571;28;19984;-43
2023/06/12 08:12:45;;;;;;;;;;;27.00;65.60;;;;;;5033192;28;20343;-44
2023/06/12 08:15:12;;;;;;;;;;;27.10;64.70;;;;;;5033543;28;20498;-43
2023/06/12 08:17:41;;;;;;;;;;;27.20;63.50;;;;;;5033977;28;19941;-44
2023/06/12 08:20:10;;;;;;;;;;;27.30;63.90;;;;;;5033755;28;20014;-44
2023/06/12 08:22:36;;;;;;;;;;;27.40;64.40;;;;;;5033722;28;19975;-43
2023/06/12 08:25:05;;;;;;;;;;;27.60;64.00;;;;;;5032584;28;19932;-41
2023/06/12 08:27:32;;;;;;;;;;;27.80;64.50;;;;;;5033477;28;20302;-43
2023/06/12 08:29:58;;;;;;;;;;;27.90;63.50;;;;;;5032804;28;19965;-42
2023/06/12 08:32:25;;;;;;;;;;;28.00;62.70;;;;;;5032571;28;20030;-41
2023/06/12 08:34:51;;;;;;;;;;;28.00;61.60;;;;;;5032451;28;20467;-42
2023/06/12 08:37:18;;;;;;;;;;;28.00;62.30;;;;;;5033428;28;19963;-43
2023/06/12 08:39:45;;;;;;;;;;;28.10;62.90;;;;;;5033290;28;20646;-43
2023/06/12 08:42:15;;;;;;;;;;;28.10;60.10;;;;;;5032297;28;20326;-42
2023/06/12 08:44:43;;;;;;;;;;;28.20;61.90;;;;;;5033443;28;20019;-42
2023/06/12 08:47:10;;;;;;;;;;;28.40;62.10;;;;;;5032555;28;19925;-40
2023/06/12 08:49:37;;;;;;;;;;;28.60;62.40;;;;;;5033204;28;19945;-42
2023/06/12 08:52:04;;;;;;;;;;;28.70;62.80;;;;;;5032320;28;19976;-42
2023/06/12 08:54:30;;;;;;;;;;;28.90;62.50;;;;;;5031958;28;20460;-42
2023/06/12 08:56:57;;;;;;;;;;;29.10;62.50;;;;;;5034090;28;20043;-42
2023/06/12 08:59:25;;;;;;;;;;;29.30;61.80;;;;;;5032179;28;20341;-43
2023/06/12 09:01:53;;;;;;;;;;;29.20;62.20;;;;;;5048546;28;19991;-43
2023/06/12 09:04:26;;;;;;;;;;;29.20;61.40;;;;;;5048618;28;20281;-43
2023/06/12 09:06:53;;;;;;;;;;;29.20;61.40;;;;;;5032928;28;19925;-42
2023/06/12 09:09:20;;;;;;;;;;;29.30;62.20;;;;;;5032778;28;19973;-43
2023/06/12 09:11:47;;;;;;;;;;;29.40;62.10;;;;;;5032775;28;20689;-40
2023/06/12 09:14:13;;;;;;;;;;;29.60;61.60;;;;;;5033083;28;20004;-43
2023/06/12 09:16:41;;;;;;;;;;;29.60;61.30;;;;;;5033010;28;20054;-43
2023/06/12 09:19:08;;;;;;;;;;;29.60;62.90;;;;;;5032563;28;19943;-44
2023/06/12 09:21:36;;;;;;;;;;;29.80;60.50;;;;;;5032583;28;19987;-42
2023/06/12 09:24:02;;;;;;;;;;;29.90;61.30;;;;;;5032914;28;20776;-43
2023/06/12 09:26:29;;;;;;;;;;;30.00;59.10;;;;;;5048295;28;19940;-43
2023/06/12 09:28:56;;;;;;;;;;;30.20;60.80;;;;;;5048295;28;19949;-43
2023/06/12 09:31:23;;;;;;;;;;;30.40;60.20;;;;;;5048375;28;19946;-40
2023/06/12 09:33:53;;;;;;;;;;;30.50;59.90;;;;;;5032717;28;19999;-43
2023/06/12 09:36:20;;;;;;;;;;;30.60;59.60;;;;;;5047844;28;19962;-44
2023/06/12 09:38:46;;;;;;;;;;;30.70;60.00;;;;;;5048107;28;19953;-42
2023/06/12 09:41:13;;;;;;;;;;;30.80;58.60;;;;;;5048168;28;19944;-43
2023/06/12 09:43:40;;;;;;;;;;;30.80;59.10;;;;;;5032139;28;20430;-44
2023/06/12 09:46:08;;;;;;;;;;;30.80;59.20;;;;;;5032498;28;20317;-44
2023/06/12 09:48:35;;;;;;;;;;;30.90;57.40;;;;;;5032257;28;20022;-43
2023/06/12 09:51:05;;;;;;;;;;;31.10;59.00;;;;;;5047625;28;20455;-43
2023/06/12 09:53:32;;;;;;;;;;;31.20;58.30;;;;;;5047618;28;19971;-43
2023/06/12 09:55:58;;;;;;;;;;;31.30;59.10;;;;;;5047801;28;20000;-43
2023/06/12 09:58:26;;;;;;;;;;;31.40;57.70;;;;;;5031858;28;19989;-42
2023/06/12 10:00:55;;;;;;;;;;;31.40;56.90;;;;;;5032311;28;19929;-43
2023/06/12 10:03:22;;;;;;;;;;;31.40;57.70;;;;;;5032115;28;20013;-42
2023/06/12 10:05:49;;;;;;;;;;;31.40;58.00;;;;;;5030890;28;20022;-40
2023/06/12 10:08:17;;;;;;;;;;;31.60;57.00;;;;;;5031220;28;20034;-43
2023/06/12 10:10:43;;;;;;;;;;;31.70;56.10;;;;;;5031184;28;20042;-43
2023/06/12 10:13:10;;;;;;;;;;;31.80;56.20;;;;;;5032145;28;20001;-43
2023/06/12 10:15:37;;;;;;;;;;;31.90;56.90;;;;;;5031898;28;19979;-42
2023/06/12 10:18:04;;;;;;;;;;;32.00;56.00;;;;;;5035566;28;19944;-42
2023/06/12 10:20:30;;;;;;;;;;;32.00;54.00;;;;;;5035883;28;19995;-43
2023/06/12 10:22:57;;;;;;;;;;;32.00;56.90;;;;;;5035059;28;20376;-43
2023/06/12 10:25:25;;;;;;;;;;;32.10;54.10;;;;;;5036070;28;19944;-43
2023/06/12 10:27:53;;;;;;;;;;;32.10;53.80;;;;;;5035995;28;20025;-43
2023/06/12 10:30:20;;;;;;;;;;;32.20;53.20;;;;;;5035890;28;19950;-43
2023/06/12 10:32:47;;;;;;;;;;;32.30;54.60;;;;;;5034671;28;20041;-42
2023/06/12 10:35:13;;;;;;;;;;;32.40;53.60;;;;;;5035510;28;19975;-43
2023/06/12 10:37:42;;;;;;;;;;;32.60;53.20;;;;;;5034845;28;20026;-44
2023/06/12 10:40:10;;;;;;;;;;;32.70;53.40;;;;;;5035661;28;20001;-44
2023/06/12 10:42:45;;;;;;;;;;;32.80;50.20;;;;;;5034721;28;19939;-43
2023/06/12 10:45:15;;;;;;;;;;;32.80;50.30;;;;;;5034536;28;20331;-43
2023/06/12 10:47:42;;;;;;;;;;;32.90;51.50;;;;;;5034390;28;19941;-42
2023/06/12 10:50:09;;;;;;;;;;;33.10;53.60;;;;;;5034184;28;20482;-44
2023/06/12 10:52:35;;;;;;;;;;;33.20;51.50;;;;;;5035623;28;19929;-43
2023/06/12 10:55:16;;;;;;;;;;;33.20;51.10;;;;;;5034637;28;19969;-42
2023/06/12 10:57:49;;;;;;;;;;;33.30;50.60;;;;;;5040789;28;19972;-43
2023/06/12 11:00:16;;;;;;;;;;;33.40;50.90;;;;;;5051019;28;19983;-43
2023/06/12 11:02:43;;;;;;;;;;;33.50;50.30;;;;;;5033975;28;20003;-44
2023/06/12 11:05:10;;;;;;;;;;;33.50;47.00;;;;;;5035420;28;19929;-43
2023/06/12 11:07:37;;;;;;;;;;;33.40;49.30;;;;;;5034388;28;20303;-43
2023/06/12 11:10:08;;;;;;;;;;;33.30;49.30;;;;;;5034185;28;19939;-44
2023/06/12 11:12:35;;;;;;;;;;;33.50;49.60;;;;;;5050878;28;19940;-42
2023/06/12 11:15:03;;;;;;;;;;;33.70;49.90;;;;;;5035024;28;20389;-42
2023/06/12 11:17:30;;;;;;;;;;;33.70;50.10;;;;;;5033762;28;20485;-42
2023/06/12 11:19:58;;;;;;;;;;;33.70;50.10;;;;;;5034250;28;20317;-43
2023/06/12 11:22:25;;;;;;;;;;;33.70;50.50;;;;;;5050164;28;20014;-42
2023/06/12 11:24:58;;;;;;;;;;;33.70;49.70;;;;;;5050703;28;19963;-44
2023/06/12 11:27:25;;;;;;;;;;;33.70;48.70;;;;;;5033787;28;20396;-43
2023/06/12 11:29:52;;;;;;;;;;;33.80;50.20;;;;;;5033934;28;20014;-44
2023/06/12 11:32:20;;;;;;;;;;;33.90;49.60;;;;;;5034825;28;19994;-43
2023/06/12 11:34:46;;;;;;;;;;;33.90;46.70;;;;;;5034640;28;20024;-44
2023/06/12 11:37:14;;;;;;;;;;;33.60;49.90;;;;;;5049868;28;19963;-43
2023/06/12 11:39:41;;;;;;;;;;;33.50;48.70;;;;;;5034428;28;19949;-43
2023/06/12 11:42:07;;;;;;;;;;;33.70;49.10;;;;;;5034576;28;19978;-43
2023/06/12 11:44:34;;;;;;;;;;;33.70;44.50;;;;;;5034362;28;19948;-42
2023/06/12 11:47:01;;;;;;;;;;;33.70;45.50;;;;;;5034666;28;19988;-42
2023/06/12 11:49:31;;;;;;;;;;;33.70;45.40;;;;;;5034512;28;20018;-43
2023/06/12 11:51:57;;;;;;;;;;;33.50;43.80;;;;;;5034585;28;19970;-43
2023/06/12 11:54:24;;;;;;;;;;;33.30;45.20;;;;;;5033309;28;19943;-42
2023/06/12 11:56:51;;;;;;;;;;;33.40;46.40;;;;;;5033080;28;20466;-43
2023/06/12 11:59:18;;;;;;;;;;;33.50;46.60;;;;;;5033259;28;20394;-43
2023/06/12 12:01:48;;;;;;;;;;;33.70;44.90;;;;;;5034298;28;19940;-43
2023/06/12 12:04:17;;;;;;;;;;;33.70;44.80;;;;;;5034258;28;19979;-44
2023/06/12 12:06:48;;;;;;;;;;;33.80;44.90;;;;;;5033200;28;19978;-42
2023/06/12 12:09:15;;;;;;;;;;;33.90;45.70;;;;;;5033174;28;19943;-43
2023/06/12 12:11:42;;;;;;;;;;;34.10;44.70;;;;;;5033919;28;19991;-43
2023/06/12 12:14:08;;;;;;;;;;;34.10;43.90;;;;;;5034507;28;19993;-43
2023/06/12 12:16:37;;;;;;;;;;;34.20;45.30;;;;;;5034181;28;19978;-42
2023/06/12 12:19:15;;;;;;;;;;;34.30;44.80;;;;;;5034063;28;19973;-43
2023/06/12 12:21:43;;;;;;;;;;;34.40;43.90;;;;;;5033172;28;19939;-43
2023/06/12 12:24:11;;;;;;;;;;;34.50;43.20;;;;;;5032822;28;19944;-44
2023/06/12 12:26:41;;;;;;;;;;;34.60;45.00;;;;;;5033726;28;20381;-44
2023/06/12 12:29:07;;;;;;;;;;;34.70;44.20;;;;;;5033837;28;19986;-44
2023/06/12 12:31:35;;;;;;;;;;;34.60;44.00;;;;;;5033472;28;19967;-43
2023/06/12 12:34:02;;;;;;;;;;;34.60;43.70;;;;;;5032481;28;19944;-43
2023/06/12 12:36:29;;;;;;;;;;;34.60;44.60;;;;;;5032429;28;20478;-41
2023/06/12 12:38:55;;;;;;;;;;;34.60;43.20;;;;;;5033396;28;19997;-43
2023/06/12 12:41:23;;;;;;;;;;;34.70;44.70;;;;;;5032225;28;19939;-42
2023/06/12 12:43:50;;;;;;;;;;;34.60;42.10;;;;;;5032532;28;19975;-43
2023/06/12 12:46:17;;;;;;;;;;;34.70;44.20;;;;;;5032508;28;19940;-43
2023/06/12 12:48:43;;;;;;;;;;;34.70;44.00;;;;;;5034316;28;20035;-43
2023/06/12 12:51:10;;;;;;;;;;;34.60;42.30;;;;;;5050421;28;20037;-43
2023/06/12 12:53:36;;;;;;;;;;;34.60;44.30;;;;;;5050538;28;20363;-43
2023/06/12 12:56:03;;;;;;;;;;;34.50;41.40;;;;;;5045597;28;19936;-43
2023/06/12 12:58:31;;;;;;;;;;;34.50;41.90;;;;;;5044812;28;20499;-44
2023/06/12 13:00:59;;;;;;;;;;;34.60;42.20;;;;;;5048686;28;19983;-43
2023/06/12 13:03:26;;;;;;;;;;;34.60;43.40;;;;;;5032941;28;19979;-42
2023/06/12 13:05:53;;;;;;;;;;;34.80;41.30;;;;;;5033069;28;20399;-43
2023/06/12 13:08:19;;;;;;;;;;;34.80;40.40;;;;;;5047983;28;19950;-43
2023/06/12 13:10:46;;;;;;;;;;;34.80;40.00;;;;;;5032753;28;19942;-43
2023/06/12 13:13:13;;;;;;;;;;;34.70;42.30;;;;;;5048472;28;20382;-43
2023/06/12 13:15:42;;;;;;;;;;;34.80;42.60;;;;;;5032864;28;19965;-43
2023/06/12 13:18:08;;;;;;;;;;;35.10;43.50;;;;;;5048014;28;20350;-43
2023/06/12 13:20:35;;;;;;;;;;;35.10;41.10;;;;;;5032788;28;20026;-42
2023/06/12 13:23:02;;;;;;;;;;;35.20;43.50;;;;;;5032538;28;19979;-43
2023/06/12 13:25:28;;;;;;;;;;;35.30;43.20;;;;;;5032561;28;20436;-42
2023/06/12 13:27:55;;;;;;;;;;;35.50;43.10;;;;;;5032929;28;19945;-44
2023/06/12 13:30:22;;;;;;;;;;;35.60;42.40;;;;;;5032500;28;19946;-43
2023/06/12 13:32:50;;;;;;;;;;;35.80;42.10;;;;;;5048162;28;19998;-44
2023/06/12 13:35:17;;;;;;;;;;;35.80;40.60;;;;;;5032302;28;20396;-44
2023/06/12 13:37:44;;;;;;;;;;;35.80;42.20;;;;;;5032350;28;20011;-43
2023/06/12 13:40:12;;;;;;;;;;;35.80;40.60;;;;;;5047557;28;19996;-42
2023/06/12 13:42:39;;;;;;;;;;;35.70;40.60;;;;;;5032670;28;19999;-43
2023/06/12 13:45:06;;;;;;;;;;;35.70;39.90;;;;;;5048005;28;19942;-43
2023/06/12 13:47:36;;;;;;;;;;;35.60;42.30;;;;;;5048079;28;20398;-43
2023/06/12 13:50:07;;;;;;;;;;;35.50;41.30;;;;;;5032497;28;20395;-43
2023/06/12 13:52:34;;;;;;;;;;;35.50;41.80;;;;;;5047530;28;20030;-42
2023/06/12 13:55:00;;;;;;;;;;;35.70;42.10;;;;;;5032342;28;19933;-43
2023/06/12 13:57:27;;;;;;;;;;;35.80;41.30;;;;;;5031907;28;20050;-43
2023/06/12 13:59:55;;;;;;;;;;;35.80;41.00;;;;;;5031247;28;20010;-43
2023/06/12 14:02:22;;;;;;;;;;;35.80;40.40;;;;;;5032173;28;20026;-43
2023/06/12 14:04:52;;;;;;;;;;;35.70;41.90;;;;;;5031355;28;19991;-43
2023/06/12 14:07:20;;;;;;;;;;;35.70;41.70;;;;;;5032060;28;19937;-43
2023/06/12 14:09:47;;;;;;;;;;;35.70;40.50;;;;;;5034064;28;19933;-42
2023/06/12 14:12:13;;;;;;;;;;;35.60;42.20;;;;;;5045474;28;20246;-42
2023/06/12 14:14:45;;;;;;;;;;;35.60;40.40;;;;;;5046271;28;20006;-43
2023/06/12 14:17:12;;;;;;;;;;;35.60;41.10;;;;;;5047855;28;19963;-42